Time;durP1;ratioP1;P1;durP2;ratioP2;P2;SDS_P1;SDS_P2;PMS_P1;PMS_P2;Temp;Humidity;BMP_temperature;BMP_pressure;BME280_temperature;BME280_humidity;BME280_pressure;Samples;Min_cycle;Max_cycle;Signal;HPM_P1;HPM_P2
2022/03/02 00:01:50;;;;;;;36.33;22.67;;;;;;;5.10;68.15;102542.66;5009152;28;20076;-74
2022/03/02 00:04:15;;;;;;;34.92;22.33;;;;;;;5.11;67.71;102553.94;5011096;28;20033;-73
2022/03/02 00:06:41;;;;;;;37.15;23.30;;;;;;;5.08;67.67;102554.03;5010157;28;20615;-72
2022/03/02 00:09:06;;;;;;;34.42;22.70;;;;;;;5.08;67.79;102546.19;5009135;28;20551;-73
2022/03/02 00:11:32;;;;;;;35.53;23.95;;;;;;;5.04;68.31;102554.09;5005885;28;20029;-73
2022/03/02 00:14:02;;;;;;;38.47;24.90;;;;;;;5.02;68.22;102558.50;5010841;28;20108;-73
2022/03/02 00:16:30;;;;;;;38.72;23.98;;;;;;;4.99;68.25;102555.97;5008686;28;20394;-73
2022/03/02 00:18:57;;;;;;;35.08;24.25;;;;;;;4.96;68.69;102558.66;5010887;28;20049;-73
2022/03/02 00:21:23;;;;;;;40.17;24.75;;;;;;;4.93;68.44;102553.50;5010029;28;20028;-73
2022/03/02 00:23:48;;;;;;;37.88;24.73;;;;;;;4.91;68.34;102565.72;5009896;28;20561;-73
2022/03/02 00:26:14;;;;;;;37.05;25.60;;;;;;;4.89;68.16;102566.66;5009326;28;20101;-73
2022/03/02 00:28:39;;;;;;;36.92;24.52;;;;;;;4.87;68.22;102568.44;5007992;28;20064;-73
2022/03/02 00:31:05;;;;;;;37.30;24.00;;;;;;;4.83;68.00;102565.03;5010194;28;20177;-73
2022/03/02 00:33:30;;;;;;;35.10;24.05;;;;;;;4.81;68.28;102564.22;5010786;28;20540;-73
2022/03/02 00:35:55;;;;;;;39.88;26.45;;;;;;;4.80;68.40;102564.22;5009935;28;20058;-73
2022/03/02 00:38:21;;;;;;;41.15;27.08;;;;;;;4.78;68.16;102563.41;5010567;28;20417;-73
2022/03/02 00:40:46;;;;;;;42.70;28.42;;;;;;;4.75;68.02;102559.09;5010428;28;20054;-73
2022/03/02 00:43:12;;;;;;;49.70;31.52;;;;;;;4.72;67.75;102556.56;5009835;28;20021;-73
2022/03/02 00:45:38;;;;;;;47.63;29.95;;;;;;;4.69;67.32;102554.91;5007532;28;20553;-74
2022/03/02 00:48:04;;;;;;;52.40;30.15;;;;;;;4.67;67.15;102561.03;5025846;28;20466;-73
2022/03/02 00:50:31;;;;;;;45.85;30.20;;;;;;;4.66;67.02;102554.09;5010125;28;20029;-73
2022/03/02 00:52:57;;;;;;;57.38;32.33;;;;;;;4.63;67.42;102554.19;5010459;28;20061;-73
2022/03/02 00:55:22;;;;;;;42.97;27.52;;;;;;;4.61;67.53;102549.00;5010548;28;20049;-73
2022/03/02 00:57:48;;;;;;;38.13;26.02;;;;;;;4.59;67.50;102548.16;5008084;28;20046;-73
2022/03/02 01:00:15;;;;;;;38.45;25.08;;;;;;;4.58;67.54;102551.66;5010274;28;20076;-73
2022/03/02 01:02:41;;;;;;;38.38;25.80;;;;;;;4.56;66.99;102544.78;5003844;28;20387;-73
2022/03/02 01:05:07;;;;;;;39.70;26.65;;;;;;;4.53;67.49;102542.25;5009648;28;20032;-73
2022/03/02 01:07:33;;;;;;;39.15;25.95;;;;;;;4.52;66.96;102535.31;5010545;28;20533;-72
2022/03/02 01:10:00;;;;;;;37.08;24.48;;;;;;;4.49;67.15;102530.16;5010248;28;20025;-73
2022/03/02 01:12:26;;;;;;;38.78;25.30;;;;;;;4.48;66.84;102528.47;5009810;28;20080;-73
2022/03/02 01:14:52;;;;;;;37.28;24.77;;;;;;;4.45;67.48;102520.72;5010542;28;20025;-73
2022/03/02 01:17:18;;;;;;;37.47;25.48;;;;;;;4.42;67.28;102525.97;5005030;28;20027;-73
2022/03/02 01:19:43;;;;;;;40.30;26.17;;;;;;;4.41;67.09;102527.72;5009384;28;20030;-73
2022/03/02 01:22:09;;;;;;;34.83;24.15;;;;;;;4.40;67.32;102523.38;5010023;28;20108;-73
2022/03/02 01:24:34;;;;;;;34.50;22.15;;;;;;;4.38;67.21;102513.00;5008546;28;20120;-72
2022/03/02 01:27:01;;;;;;;33.08;22.48;;;;;;;4.36;66.45;102517.38;5009783;28;20026;-73
2022/03/02 01:29:28;;;;;;;39.63;24.13;;;;;;;4.34;66.73;102516.56;5010369;28;20404;-72
2022/03/02 01:31:54;;;;;;;37.10;22.75;;;;;;;4.33;66.49;102514.84;5009375;28;20030;-73
2022/03/02 01:34:19;;;;;;;38.92;25.50;;;;;;;4.32;66.33;102513.13;5009392;28;20076;-72
2022/03/02 01:36:44;;;;;;;35.28;24.75;;;;;;;4.30;66.53;102503.63;5009220;28;20108;-72
2022/03/02 01:39:10;;;;;;;40.38;25.35;;;;;;;4.28;66.63;102508.88;5009140;28;20033;-73
2022/03/02 01:41:35;;;;;;;38.85;26.35;;;;;;;4.27;66.96;102503.69;5009908;28;20117;-73
2022/03/02 01:44:00;;;;;;;38.17;25.25;;;;;;;4.24;66.60;102508.97;5015009;28;20033;-74
2022/03/02 01:46:26;;;;;;;38.72;25.83;;;;;;;4.22;67.07;102501.19;5027466;28;20026;-73
2022/03/02 01:48:52;;;;;;;39.15;25.73;;;;;;;4.20;67.06;102502.97;5029559;28;20087;-73
2022/03/02 01:51:18;;;;;;;40.33;26.00;;;;;;;4.19;67.20;102506.47;5014464;28;20072;-73
2022/03/02 01:53:43;;;;;;;44.10;28.02;;;;;;;4.17;66.82;102500.44;5008936;28;20249;-73
2022/03/02 01:56:09;;;;;;;41.38;27.38;;;;;;;4.15;67.13;102504.81;5007946;28;20018;-73
2022/03/02 01:58:35;;;;;;;40.88;26.67;;;;;;;4.15;66.72;102504.81;5009387;28;20029;-72
2022/03/02 02:01:02;;;;;;;38.53;25.45;;;;;;;4.11;66.84;102495.34;5007521;28;20025;-72
2022/03/02 02:03:27;;;;;;;40.35;26.58;;;;;;;4.08;66.80;102492.81;5009488;28;20045;-72
2022/03/02 02:05:54;;;;;;;42.95;26.30;;;;;;;4.08;67.30;102503.22;5009677;28;20034;-73
2022/03/02 02:08:20;;;;;;;43.47;27.60;;;;;;;4.03;67.48;102494.66;5008866;28;20029;-73
2022/03/02 02:10:46;;;;;;;39.40;25.15;;;;;;;4.02;67.40;102491.19;5003980;28;20125;-74
2022/03/02 02:13:11;;;;;;;41.60;25.70;;;;;;;4.01;67.49;102492.09;5024543;28;20117;-73
2022/03/02 02:15:37;;;;;;;43.35;27.45;;;;;;;4.00;67.36;102484.28;5008641;28;20022;-73
2022/03/02 02:18:03;;;;;;;42.17;27.45;;;;;;;3.96;67.13;102482.63;5009502;28;20053;-73
2022/03/02 02:20:29;;;;;;;38.70;25.48;;;;;;;3.96;67.57;102477.41;5009727;28;20454;-73
2022/03/02 02:22:55;;;;;;;41.47;27.00;;;;;;;3.95;67.87;102481.75;5008816;28;20029;-73
2022/03/02 02:25:20;;;;;;;41.47;26.33;;;;;;;3.94;67.53;102480.06;5009650;28;20402;-73
2022/03/02 02:27:47;;;;;;;39.80;25.13;;;;;;;3.92;67.13;102481.84;5003603;28;20022;-73
2022/03/02 02:30:15;;;;;;;38.00;25.83;;;;;;;3.91;66.68;102484.47;5010731;28;20025;-73
2022/03/02 02:32:41;;;;;;;36.03;24.13;;;;;;;3.90;67.62;102474.94;5012547;28;20429;-73
2022/03/02 02:35:08;;;;;;;36.78;23.48;;;;;;;3.90;67.48;102480.16;5012286;28;20446;-72
2022/03/02 02:37:38;;;;;;;45.97;27.55;;;;;;;3.89;66.95;102470.63;5012831;28;20029;-73
2022/03/02 02:40:18;;;;;;;46.67;29.38;;;;;;;3.89;67.39;102473.22;5012966;28;20398;-73
2022/03/02 02:42:48;;;;;;;43.17;26.45;;;;;;;3.86;66.67;102470.69;5014005;28;20444;-73
2022/03/02 02:45:20;;;;;;;38.05;24.88;;;;;;;3.84;67.15;102468.13;5016142;28;20033;-72
2022/03/02 02:47:49;;;;;;;37.95;24.73;;;;;;;3.85;67.53;102463.75;4992948;28;20057;-72
2022/03/02 02:50:24;;;;;;;42.67;23.67;;;;;;;3.84;67.63;102464.66;4993338;28;20034;-73
2022/03/02 02:52:51;;;;;;;36.42;23.70;;;;;;;3.83;67.62;102465.53;5012479;28;20030;-73
2022/03/02 02:55:17;;;;;;;35.58;23.75;;;;;;;3.81;67.21;102457.75;5012198;28;20478;-73
2022/03/02 02:57:43;;;;;;;32.83;22.65;;;;;;;3.80;67.83;102463.84;5011595;28;20068;-73
2022/03/02 03:00:12;;;;;;;35.03;23.63;;;;;;;3.78;66.91;102458.69;5012355;28;20057;-73
2022/03/02 03:02:38;;;;;;;33.67;23.02;;;;;;;3.77;67.00;102470.00;5012295;28;20048;-73
2022/03/02 03:05:04;;;;;;;37.90;23.10;;;;;;;3.76;66.60;102460.47;5009119;28;20018;-73
2022/03/02 03:07:29;;;;;;;33.40;22.50;;;;;;;3.78;66.25;102470.84;5011033;28;20441;-74
2022/03/02 03:09:55;;;;;;;36.60;22.55;;;;;;;3.76;66.60;102460.47;5011897;28;20406;-74
2022/03/02 03:12:20;;;;;;;35.20;22.02;;;;;;;3.76;67.39;102455.25;5011328;28;20041;-73
2022/03/02 03:14:45;;;;;;;35.03;22.50;;;;;;;3.75;67.06;102461.34;5011677;28;20018;-73
2022/03/02 03:17:11;;;;;;;35.88;23.45;;;;;;;3.75;66.65;102457.88;5011720;28;20026;-72
2022/03/02 03:19:39;;;;;;;40.05;22.48;;;;;;;3.74;66.42;102457.03;5007255;28;20056;-73
2022/03/02 03:22:06;;;;;;;31.35;20.83;;;;;;;3.73;66.72;102450.13;5012141;28;20025;-73
2022/03/02 03:24:31;;;;;;;33.58;21.40;;;;;;;3.73;66.38;102451.84;5011724;28;20470;-73
2022/03/02 03:26:57;;;;;;;33.20;20.83;;;;;;;3.73;66.12;102449.25;5011738;28;20034;-72
2022/03/02 03:29:22;;;;;;;33.22;20.85;;;;;;;3.72;65.75;102443.19;5012125;28;20029;-72
2022/03/02 03:31:47;;;;;;;32.00;21.08;;;;;;;3.71;65.76;102451.88;5011264;28;20037;-73
2022/03/02 03:34:13;;;;;;;32.42;20.58;;;;;;;3.72;65.92;102452.75;5011690;28;20068;-73
2022/03/02 03:36:38;;;;;;;31.15;19.48;;;;;;;3.70;65.47;102452.78;5010273;28;20049;-73
2022/03/02 03:39:04;;;;;;;29.85;20.10;;;;;;;3.70;65.94;102455.38;5012928;28;20032;-74
2022/03/02 03:41:29;;;;;;;31.20;19.95;;;;;;;3.69;65.27;102452.81;5011931;28;20037;-72
2022/03/02 03:43:55;;;;;;;30.23;19.50;;;;;;;3.70;65.48;102450.19;5011551;28;20075;-74
2022/03/02 03:46:20;;;;;;;32.30;19.75;;;;;;;3.68;65.45;102448.50;5030517;28;20037;-72
2022/03/02 03:48:45;;;;;;;28.25;19.48;;;;;;;3.67;65.06;102444.19;5030988;28;20025;-72
2022/03/02 03:51:10;;;;;;;29.95;19.00;;;;;;;3.67;64.95;102442.44;5038221;28;20034;-75
2022/03/02 03:53:36;;;;;;;30.63;19.10;;;;;;;3.66;64.57;102447.66;5010859;28;20034;-73
2022/03/02 03:56:02;;;;;;;29.10;18.63;;;;;;;3.67;65.07;102454.59;5010314;28;20022;-72
2022/03/02 03:58:28;;;;;;;28.63;19.23;;;;;;;3.65;65.22;102443.34;5011373;28;20029;-73
2022/03/02 04:00:53;;;;;;;27.88;19.00;;;;;;;3.64;64.48;102442.50;5010703;28;20022;-73
2022/03/02 04:03:20;;;;;;;28.35;18.33;;;;;;;3.64;64.91;102439.88;5011318;28;20021;-74
2022/03/02 04:05:45;;;;;;;33.53;19.33;;;;;;;3.63;64.45;102438.19;5011046;28;20032;-74
2022/03/02 04:08:11;;;;;;;30.73;18.55;;;;;;;3.62;64.62;102436.47;5009083;28;20026;-74
2022/03/02 04:10:37;;;;;;;29.48;18.30;;;;;;;3.61;64.32;102439.94;5011368;28;20037;-75
2022/03/02 04:13:02;;;;;;;28.27;18.85;;;;;;;3.59;64.27;102436.50;5005721;28;20026;-74
2022/03/02 04:15:28;;;;;;;31.45;19.35;;;;;;;3.59;63.87;102430.44;5011024;28;20041;-74
2022/03/02 04:17:53;;;;;;;29.17;18.73;;;;;;;3.59;64.46;102430.44;5011174;28;20028;-74
2022/03/02 04:20:19;;;;;;;26.77;17.58;;;;;;;3.57;64.37;102422.66;5010814;28;20390;-74
2022/03/02 04:22:44;;;;;;;30.55;18.60;;;;;;;3.56;64.22;102415.72;5011534;28;20056;-74
2022/03/02 04:25:10;;;;;;;30.30;18.17;;;;;;;3.56;63.59;102420.09;5010448;28;20438;-75
2022/03/02 04:27:38;;;;;;;29.67;18.52;;;;;;;3.55;64.54;102421.81;5005246;28;20030;-74
2022/03/02 04:30:05;;;;;;;28.50;18.50;;;;;;;3.55;63.97;102420.97;5010793;28;20034;-74
2022/03/02 04:32:30;;;;;;;28.38;18.10;;;;;;;3.54;63.66;102414.91;5026187;28;20390;-74
2022/03/02 04:34:56;;;;;;;27.85;18.10;;;;;;;3.52;63.32;102413.22;5008638;28;20124;-74
2022/03/02 04:37:21;;;;;;;28.92;18.58;;;;;;;3.52;63.73;102414.09;5010448;28;20475;-74
2022/03/02 04:39:46;;;;;;;28.35;18.90;;;;;;;3.51;64.01;102406.31;5010657;28;20025;-73
2022/03/02 04:42:13;;;;;;;27.13;17.80;;;;;;;3.49;64.19;102408.94;5010031;28;20054;-72
2022/03/02 04:44:38;;;;;;;26.25;17.27;;;;;;;3.49;64.11;102408.94;5016053;28;20108;-73
2022/03/02 04:47:04;;;;;;;26.60;17.60;;;;;;;3.47;63.74;102405.50;5022613;28;20045;-73
2022/03/02 04:49:30;;;;;;;28.10;18.00;;;;;;;3.46;64.15;102409.00;5009961;28;20030;-73
2022/03/02 04:51:56;;;;;;;27.30;17.10;;;;;;;3.45;64.05;102397.75;5010113;28;20040;-73
2022/03/02 04:57:06;;;;;;;29.80;17.92;;;;;;;3.42;63.62;102402.16;5009565;28;20040;-73
2022/03/02 04:59:31;;;;;;;26.98;17.40;;;;;;;3.41;64.70;102397.84;5010207;28;20049;-73
2022/03/02 05:01:57;;;;;;;27.05;17.42;;;;;;;3.38;63.15;102395.28;5003050;28;20038;-73
2022/03/02 05:04:26;;;;;;;30.58;18.02;;;;;;;3.37;63.55;102383.16;4999895;28;20493;-73
2022/03/02 05:06:52;;;;;;;28.30;18.20;;;;;;;3.36;63.89;102387.50;5009002;28;20133;-73
2022/03/02 05:09:17;;;;;;;26.50;16.83;;;;;;;3.35;63.88;102396.22;5008981;28;20026;-73
2022/03/02 05:11:42;;;;;;;25.88;17.88;;;;;;;3.35;63.90;102390.16;5008606;28;20033;-73
2022/03/02 05:14:07;;;;;;;25.55;18.08;;;;;;;3.35;64.61;102390.16;5009877;28;20552;-73
2022/03/02 05:16:33;;;;;;;26.98;17.30;;;;;;;3.34;63.82;102386.69;5009989;28;20022;-73
2022/03/02 05:18:58;;;;;;;30.00;17.83;;;;;;;3.32;63.43;102385.88;5024938;28;20056;-73
2022/03/02 05:21:23;;;;;;;30.35;18.17;;;;;;;3.32;63.53;102385.00;5004816;28;20022;-73
2022/03/02 05:23:49;;;;;;;28.33;18.23;;;;;;;3.31;63.62;102385.91;5009290;28;20030;-73
2022/03/02 05:26:14;;;;;;;25.23;17.30;;;;;;;3.30;63.77;102381.59;5009672;28;20034;-72
2022/03/02 05:28:40;;;;;;;27.00;17.15;;;;;;;3.29;64.00;102379.88;5009662;28;20385;-73
2022/03/02 05:31:06;;;;;;;25.25;17.23;;;;;;;3.28;63.86;102386.81;5009220;28;20038;-74
2022/03/02 05:33:31;;;;;;;25.15;17.10;;;;;;;3.27;63.36;102376.44;5010420;28;20021;-74
2022/03/02 05:35:56;;;;;;;29.33;17.23;;;;;;;3.27;63.62;102381.63;5008523;28;20049;-74
2022/03/02 05:38:22;;;;;;;26.75;17.25;;;;;;;3.25;63.63;102383.41;5007978;28;20601;-74
2022/03/02 05:40:47;;;;;;;24.70;17.00;;;;;;;3.24;63.35;102376.50;5008590;28;20049;-72
2022/03/02 05:43:12;;;;;;;25.27;16.98;;;;;;;3.23;63.74;102372.19;5025010;28;20124;-73
2022/03/02 05:45:38;;;;;;;27.65;16.42;;;;;;;3.21;63.78;102380.00;5022685;28;20029;-73
2022/03/02 05:48:04;;;;;;;29.63;17.20;;;;;;;3.20;62.96;102382.63;5029741;28;20053;-72
2022/03/02 05:50:29;;;;;;;24.40;16.27;;;;;;;3.20;62.50;102374.81;5029580;28;20100;-72
2022/03/02 05:52:54;;;;;;;25.50;16.48;;;;;;;3.18;62.93;102371.38;5028167;28;20021;-73
2022/03/02 05:55:19;;;;;;;28.02;16.73;;;;;;;3.17;63.00;102374.88;5019138;28;20301;-73
2022/03/02 05:57:45;;;;;;;25.23;16.30;;;;;;;3.17;62.72;102380.94;5008776;28;20092;-73
2022/03/02 06:00:10;;;;;;;27.55;16.92;;;;;;;3.16;63.52;102379.22;5008751;28;20122;-73
2022/03/02 06:02:36;;;;;;;26.33;17.25;;;;;;;3.17;62.80;102380.94;5009717;28;20057;-74
2022/03/02 06:05:02;;;;;;;23.77;16.15;;;;;;;3.14;63.38;102370.59;5009964;28;20037;-74
2022/03/02 06:07:27;;;;;;;25.95;16.27;;;;;;;3.14;62.64;102376.66;5011243;28;20030;-74
2022/03/02 06:09:53;;;;;;;24.27;15.82;;;;;;;3.14;62.51;102387.03;5012733;28;20101;-74
2022/03/02 06:12:19;;;;;;;26.75;16.23;;;;;;;3.12;62.85;102381.00;5013237;28;20032;-74
2022/03/02 06:14:45;;;;;;;26.80;16.17;;;;;;;3.10;62.28;102385.38;5011952;28;20021;-74
2022/03/02 06:17:11;;;;;;;25.30;16.60;;;;;;;3.10;62.31;102384.53;5012902;28;20101;-74
2022/03/02 06:19:36;;;;;;;24.27;15.00;;;;;;;3.09;62.69;102383.69;5011862;28;20489;-74
2022/03/02 06:22:03;;;;;;;26.90;15.68;;;;;;;3.07;62.41;102380.25;5010761;28;20029;-74
2022/03/02 06:24:30;;;;;;;26.48;16.23;;;;;;;3.07;63.11;102382.84;5011204;28;20076;-74
2022/03/02 06:26:55;;;;;;;25.90;16.48;;;;;;;3.07;62.35;102384.59;5009418;28;20033;-74
2022/03/02 06:29:20;;;;;;;23.45;15.32;;;;;;;3.05;61.71;102384.63;5011157;28;20128;-74
2022/03/02 06:31:46;;;;;;;27.55;15.32;;;;;;;3.06;62.78;102388.94;5010863;28;20545;-74
2022/03/02 06:34:11;;;;;;;25.60;15.55;;;;;;;3.05;62.17;102382.03;5011503;28;20030;-74
2022/03/02 06:36:36;;;;;;;25.48;15.35;;;;;;;3.03;62.09;102383.78;5011851;28;20541;-73
2022/03/02 06:39:02;;;;;;;24.95;15.32;;;;;;;3.04;62.54;102389.84;5012204;28;20050;-74
2022/03/02 06:41:56;;;;;;;23.35;15.70;;;;;;;3.07;62.42;102382.00;5011767;28;20442;-74
2022/03/02 06:44:31;;;;;;;26.33;15.65;;;;;;;3.03;62.18;102385.53;5015636;28;20029;-73
2022/03/02 06:47:09;;;;;;;25.73;15.73;;;;;;;3.03;62.18;102389.00;5031707;28;20393;-73
2022/03/02 06:50:01;;;;;;;24.98;16.55;;;;;;;3.06;62.35;102394.13;5031512;28;20036;-73
2022/03/02 06:52:32;;;;;;;29.40;19.40;;;;;;;3.01;62.81;102395.09;5030230;28;20072;-72
2022/03/02 06:55:02;;;;;;;25.63;16.75;;;;;;;3.01;61.29;102395.97;5024154;28;20186;-73
2022/03/02 06:57:28;;;;;;;23.30;15.45;;;;;;;3.00;61.69;102396.84;5010750;28;20379;-73
2022/03/02 07:00:00;;;;;;;24.88;15.32;;;;;;;3.02;62.54;102407.22;5010941;28;20029;-73
2022/03/02 07:02:42;;;;;;;27.77;15.45;;;;;;;3.03;62.09;102404.59;5010578;28;20040;-74
2022/03/02 07:05:09;;;;;;;29.73;16.00;;;;;;;3.00;62.01;102396.00;5009823;28;20029;-73
2022/03/02 07:07:35;;;;;;;26.98;15.23;;;;;;;2.99;61.03;102397.72;5009351;28;20781;-75
2022/03/02 07:10:01;;;;;;;25.25;15.93;;;;;;;3.00;62.22;102399.44;5010667;28;20029;-73
2022/03/02 07:12:29;;;;;;;23.00;14.55;;;;;;;3.00;61.77;102402.03;5012013;28;20478;-73
2022/03/02 07:14:55;;;;;;;26.42;15.43;;;;;;;3.00;61.61;102409.00;5011481;28;20021;-73
2022/03/02 07:17:21;;;;;;;26.33;16.33;;;;;;;3.00;61.35;102394.25;5009848;28;20025;-74
2022/03/02 07:19:47;;;;;;;23.00;15.70;;;;;;;3.00;61.81;102402.03;5009601;28;20029;-72
2022/03/02 07:22:16;;;;;;;23.50;15.63;;;;;;;3.01;61.28;102400.31;5010595;28;20603;-73
2022/03/02 07:24:53;;;;;;;22.08;15.05;;;;;;;3.03;62.11;102403.72;5008521;28;20478;-74
2022/03/02 07:27:19;;;;;;;26.33;15.88;;;;;;;3.03;62.08;102406.34;5007761;28;20030;-73
2022/03/02 07:29:49;;;;;;;25.95;15.95;;;;;;;3.04;62.91;102410.66;5011361;28;20022;-74
2022/03/02 07:32:17;;;;;;;26.27;15.95;;;;;;;3.06;61.96;102419.28;4985100;28;20490;-74
2022/03/02 07:34:43;;;;;;;27.92;16.65;;;;;;;3.07;62.26;102411.44;5009018;28;20057;-73
2022/03/02 07:37:09;;;;;;;25.15;15.90;;;;;;;3.08;61.30;102407.97;5011285;28;20389;-74
2022/03/02 07:39:35;;;;;;;23.15;15.45;;;;;;;3.11;60.81;102412.25;5011379;28;20053;-74
2022/03/02 07:42:02;;;;;;;25.88;15.60;;;;;;;3.13;61.52;102408.75;5011152;28;20021;-74
2022/03/02 07:44:28;;;;;;;25.67;15.88;;;;;;;3.17;61.41;102406.06;5010599;28;20395;-74
2022/03/02 07:46:56;;;;;;;25.52;15.82;;;;;;;3.20;60.93;102406.03;5010441;28;20022;-73
2022/03/02 07:49:21;;;;;;;25.00;15.30;;;;;;;3.22;60.78;102399.06;5011736;28;20120;-74
2022/03/02 07:51:52;;;;;;;24.33;15.70;;;;;;;3.27;59.89;102407.66;5010219;28;20187;-74
2022/03/02 07:54:21;;;;;;;22.30;14.40;;;;;;;3.29;60.86;102400.66;5026716;28;20026;-74
2022/03/02 07:56:47;;;;;;;22.80;15.18;;;;;;;3.31;60.08;102397.16;5010873;28;20022;-74
2022/03/02 07:59:15;;;;;;;29.50;15.85;;;;;;;3.35;59.29;102397.94;5010647;28;20029;-74
2022/03/02 08:01:41;;;;;;;26.10;16.08;;;;;;;3.37;59.42;102394.44;5009845;28;20555;-74
2022/03/02 08:04:09;;;;;;;21.52;14.10;;;;;;;3.42;59.55;102386.53;5010829;28;20065;-74
2022/03/02 08:06:39;;;;;;;26.33;16.35;;;;;;;3.47;58.84;102389.91;5010604;28;20054;-74
2022/03/02 08:09:06;;;;;;;27.73;15.45;;;;;;;3.52;59.25;102393.25;5009929;28;20032;-74
2022/03/02 08:11:34;;;;;;;22.95;14.98;;;;;;;3.58;59.60;102393.13;5010630;28;20036;-74
2022/03/02 08:14:00;;;;;;;24.98;15.30;;;;;;;3.62;58.44;102389.63;5008051;28;20095;-74
2022/03/02 08:16:28;;;;;;;27.45;15.60;;;;;;;3.68;57.90;102386.88;5011532;28;20026;-74
2022/03/02 08:18:53;;;;;;;22.92;15.45;;;;;;;3.73;57.71;102386.78;5011199;28;20026;-75
2022/03/02 08:21:21;;;;;;;23.35;14.82;;;;;;;3.82;58.48;102390.94;5010132;28;20427;-74
2022/03/02 08:23:49;;;;;;;22.00;14.60;;;;;;;3.85;57.11;102390.88;5010938;28;20038;-73
2022/03/02 08:26:18;;;;;;;27.10;15.30;;;;;;;3.91;57.27;102388.13;5009308;28;20061;-74
2022/03/02 08:28:45;;;;;;;24.20;14.38;;;;;;;3.96;57.37;102379.31;5008156;28;20442;-72
2022/03/02 08:31:12;;;;;;;24.80;14.68;;;;;;;4.02;56.76;102386.16;5001031;28;20030;-73
2022/03/02 08:33:40;;;;;;;23.58;14.60;;;;;;;4.11;57.27;102383.34;5005504;28;20032;-74
2022/03/02 08:36:08;;;;;;;19.73;14.10;;;;;;;4.15;57.45;102385.00;5024930;28;20083;-74
2022/03/02 08:38:40;;;;;;;21.25;14.05;;;;;;;4.22;55.98;102376.16;5017926;28;20105;-74
2022/03/02 08:41:07;;;;;;;23.13;13.88;;;;;;;4.30;56.85;102389.00;5007872;28;20025;-74
2022/03/02 08:43:34;;;;;;;21.48;14.13;;;;;;;4.34;56.58;102375.84;5021895;28;20026;-74
2022/03/02 08:46:00;;;;;;;22.42;14.75;;;;;;;4.41;56.31;102376.59;5013281;28;20034;-74
2022/03/02 08:48:25;;;;;;;25.00;14.68;;;;;;;4.48;55.42;102372.09;5027088;28;20026;-74
2022/03/02 08:50:55;;;;;;;23.48;14.65;;;;;;;4.55;56.37;102373.66;5030238;28;20087;-74
2022/03/02 08:53:24;;;;;;;21.73;13.73;;;;;;;4.63;55.26;102371.69;5012210;28;20107;-74
2022/03/02 08:55:51;;;;;;;23.85;14.40;;;;;;;4.69;55.49;102368.94;5010254;28;20437;-74
2022/03/02 08:58:16;;;;;;;22.52;14.25;;;;;;;4.80;55.25;102368.66;5010358;28;20022;-73
2022/03/02 09:00:42;;;;;;;21.85;13.57;;;;;;;4.85;54.79;102370.28;5010290;28;20497;-74
2022/03/02 09:03:12;;;;;;;23.80;14.43;;;;;;;4.93;54.63;102372.69;5009606;28;20061;-73
2022/03/02 09:05:37;;;;;;;22.95;14.60;;;;;;;5.01;54.96;102368.97;5009577;28;20084;-73
2022/03/02 09:08:03;;;;;;;18.90;13.95;;;;;;;5.10;54.45;102367.00;5009967;28;20474;-74
2022/03/02 09:10:29;;;;;;;25.00;13.88;;;;;;;5.16;53.84;102362.47;5009482;28;20420;-74
2022/03/02 09:12:56;;;;;;;24.63;14.18;;;;;;;5.23;53.49;102360.59;5010077;28;20022;-74
2022/03/02 09:15:22;;;;;;;20.90;13.95;;;;;;;5.29;53.62;102352.59;5008967;28;20026;-73
2022/03/02 09:17:47;;;;;;;20.48;13.73;;;;;;;5.36;52.98;102359.34;5009288;28;20025;-74
2022/03/02 09:20:12;;;;;;;20.90;13.98;;;;;;;5.43;53.16;102360.88;5009652;28;20822;-74
2022/03/02 09:22:39;;;;;;;20.73;13.38;;;;;;;5.54;52.79;102350.97;5009793;28;20047;-74
2022/03/02 09:25:06;;;;;;;20.92;12.95;;;;;;;5.61;52.49;102354.28;5007852;28;20018;-74
2022/03/02 09:27:33;;;;;;;22.33;13.70;;;;;;;5.69;52.34;102357.53;5009969;28;20034;-74
2022/03/02 09:30:00;;;;;;;21.50;13.13;;;;;;;5.79;52.10;102355.50;5008820;28;20033;-73
2022/03/02 09:32:27;;;;;;;23.23;12.90;;;;;;;5.87;51.41;102350.88;5009848;28;20030;-74
2022/03/02 09:34:57;;;;;;;19.73;13.40;;;;;;;5.99;50.99;102340.09;5009237;28;20065;-73
2022/03/02 09:37:24;;;;;;;23.20;12.30;;;;;;;6.05;50.64;102350.38;5009120;28;20030;-73
2022/03/02 09:39:51;;;;;;;17.08;11.57;;;;;;;6.12;49.46;102340.59;5011666;28;20026;-74
2022/03/02 09:42:30;;;;;;;16.83;12.18;;;;;;;6.22;50.44;102347.22;5015841;28;20029;-73
2022/03/02 09:45:20;;;;;;;20.77;12.60;;;;;;;6.32;51.68;102340.78;5023763;28;20040;-73
2022/03/02 09:47:50;;;;;;;17.83;12.27;;;;;;;6.40;49.29;102336.16;5036292;28;20108;-74
2022/03/02 09:50:17;;;;;;;19.63;12.73;;;;;;;6.47;49.37;102332.47;5036133;28;20441;-74
2022/03/02 09:52:45;;;;;;;20.48;13.13;;;;;;;6.58;49.96;102332.09;5035124;28;20022;-73
2022/03/02 09:55:14;;;;;;;19.67;13.07;;;;;;;6.69;49.09;102326.50;5024311;28;20535;-74
2022/03/02 09:57:54;;;;;;;22.02;12.73;;;;;;;6.77;49.59;102325.31;5016139;28;20022;-73
2022/03/02 10:00:22;;;;;;;18.88;12.45;;;;;;;6.90;48.43;102320.56;5016800;28;20028;-73
2022/03/02 10:02:50;;;;;;;20.38;12.93;;;;;;;7.02;49.67;102327.09;5015722;28;20386;-73
2022/03/02 10:05:20;;;;;;;19.17;12.40;;;;;;;7.14;47.54;102324.03;5015516;28;20087;-74
2022/03/02 10:07:57;;;;;;;19.50;12.88;;;;;;;7.23;47.51;102324.59;5016056;28;20033;-73
2022/03/02 10:10:24;;;;;;;18.05;12.93;;;;;;;7.33;46.15;102325.09;5016166;28;20041;-73
2022/03/02 10:12:51;;;;;;;17.77;11.93;;;;;;;7.44;46.71;102328.16;5015420;28;20036;-73
2022/03/02 10:15:18;;;;;;;20.17;12.23;;;;;;;7.52;46.78;102320.03;5016371;28;20031;-73
2022/03/02 10:17:48;;;;;;;17.33;11.60;;;;;;;7.64;46.54;102321.34;5015639;28;20367;-74
2022/03/02 10:20:22;;;;;;;17.48;11.98;;;;;;;7.74;45.23;102320.94;5014907;28;20494;-74
2022/03/02 10:23:11;;;;;;;17.73;11.63;;;;;;;7.87;45.79;102323.91;5008748;28;20033;-73
2022/03/02 10:26:01;;;;;;;18.35;11.73;;;;;;;8.04;47.70;102324.13;4996581;28;20430;-74
2022/03/02 10:28:28;;;;;;;18.48;11.93;;;;;;;8.20;46.36;102316.50;5008373;28;20490;-73
2022/03/02 10:31:27;;;;;;;18.83;11.65;;;;;;;8.35;47.89;102308.03;5015697;28;20084;-73
2022/03/02 10:34:01;;;;;;;19.25;11.98;;;;;;;8.52;44.83;102309.97;5015249;28;20030;-73
2022/03/02 10:36:29;;;;;;;18.80;11.30;;;;;;;8.67;43.45;102309.31;5014784;28;20045;-73
2022/03/02 10:38:57;;;;;;;17.00;11.23;;;;;;;8.78;44.39;102311.47;5012453;28;20022;-73
2022/03/02 10:41:22;;;;;;;19.25;11.60;;;;;;;8.88;43.45;102301.44;5026252;28;20062;-74
2022/03/02 10:44:04;;;;;;;17.55;11.82;;;;;;;8.96;42.97;102304.59;5014032;28;20107;-74
2022/03/02 10:46:29;;;;;;;14.80;11.48;;;;;;;9.06;42.55;102306.72;5021402;28;20437;-74
2022/03/02 10:49:05;;;;;;;16.35;11.52;;;;;;;9.20;42.80;102308.72;5009109;28;20042;-73
2022/03/02 10:51:34;;;;;;;16.27;11.45;;;;;;;9.32;42.25;102302.94;5010778;28;20068;-73
2022/03/02 10:54:03;;;;;;;17.20;11.75;;;;;;;9.48;43.49;102305.72;5010788;28;20021;-73
2022/03/02 10:56:30;;;;;;;22.15;11.95;;;;;;;9.60;41.61;102301.66;5011242;28;20018;-74
2022/03/02 10:58:59;;;;;;;15.30;11.30;;;;;;;9.80;42.89;102298.97;5006656;28;20026;-73
2022/03/02 11:01:24;;;;;;;19.17;11.88;;;;;;;9.99;41.68;102298.94;5010718;28;20391;-73
2022/03/02 11:03:50;;;;;;;17.55;12.13;;;;;;;10.15;42.94;102293.78;5010819;28;20030;-73
2022/03/02 11:06:17;;;;;;;15.95;12.05;;;;;;;10.22;41.28;102284.69;5010862;28;20061;-74
2022/03/02 11:08:43;;;;;;;17.30;11.93;;;;;;;10.36;40.59;102293.59;5009864;28;20040;-73
2022/03/02 11:11:10;;;;;;;18.20;11.90;;;;;;;10.52;40.66;102287.59;5010646;28;20474;-73
2022/03/02 11:13:40;;;;;;;15.68;11.70;;;;;;;10.54;38.46;102283.94;5011073;28;20025;-73
2022/03/02 11:16:06;;;;;;;16.38;11.60;;;;;;;10.65;39.04;102286.03;5009528;28;20022;-74
2022/03/02 11:18:36;;;;;;;16.08;11.18;;;;;;;10.81;38.76;102275.56;5026026;28;20021;-73
2022/03/02 11:21:04;;;;;;;16.90;11.75;;;;;;;10.92;38.81;102275.84;5008549;28;20030;-73